sensor_id;sensor_type;location;lat;lon;timestamp;P1;durP1;ratioP1;P2;durP2;ratioP2
15952;SDS011;8075;47.766;8.846;2023-03-01T00:01:25;18.55;;;16.65;;
15952;SDS011;8075;47.766;8.846;2023-03-01T00:03:51;18.02;;;16.23;;
15952;SDS011;8075;47.766;8.846;2023-03-01T00:06:17;18.50;;;16.67;;
15952;SDS011;8075;47.766;8.846;2023-03-01T00:08:44;18.05;;;16.33;;
15952;SDS011;8075;47.766;8.846;2023-03-01T00:13:36;18.60;;;16.70;;
15952;SDS011;8075;47.766;8.846;2023-03-01T00:16:03;18.90;;;16.88;;
15952;SDS011;8075;47.766;8.846;2023-03-01T00:18:29;17.83;;;16.13;;
15952;SDS011;8075;47.766;8.846;2023-03-01T00:20:55;19.08;;;17.27;;
15952;SDS011;8075;47.766;8.846;2023-03-01T00:23:21;19.00;;;17.00;;
15952;SDS011;8075;47.766;8.846;2023-03-01T00:25:47;18.47;;;16.47;;
15952;SDS011;8075;47.766;8.846;2023-03-01T00:28:13;19.73;;;17.65;;
15952;SDS011;8075;47.766;8.846;2023-03-01T00:30:40;19.38;;;17.40;;
15952;SDS011;8075;47.766;8.846;2023-03-01T00:33:06;19.00;;;17.10;;
15952;SDS011;8075;47.766;8.846;2023-03-01T00:35:32;20.10;;;17.98;;
15952;SDS011;8075;47.766;8.846;2023-03-01T00:37:59;19.25;;;17.35;;
15952;SDS011;8075;47.766;8.846;2023-03-01T00:40:25;19.48;;;17.42;;
15952;SDS011;8075;47.766;8.846;2023-03-01T00:42:51;20.40;;;18.05;;
15952;SDS011;8075;47.766;8.846;2023-03-01T00:45:17;20.35;;;18.17;;
15952;SDS011;8075;47.766;8.846;2023-03-01T00:47:43;19.95;;;17.80;;
15952;SDS011;8075;47.766;8.846;2023-03-01T00:50:10;19.10;;;17.10;;
15952;SDS011;8075;47.766;8.846;2023-03-01T00:52:36;18.98;;;17.17;;
15952;SDS011;8075;47.766;8.846;2023-03-01T00:55:03;20.27;;;17.90;;
15952;SDS011;8075;47.766;8.846;2023-03-01T00:57:29;20.48;;;18.40;;
15952;SDS011;8075;47.766;8.846;2023-03-01T00:59:55;20.15;;;18.15;;
15952;SDS011;8075;47.766;8.846;2023-03-01T01:02:21;20.73;;;18.63;;
15952;SDS011;8075;47.766;8.846;2023-03-01T01:04:47;20.25;;;18.20;;
15952;SDS011;8075;47.766;8.846;2023-03-01T01:07:14;19.95;;;17.85;;
15952;SDS011;8075;47.766;8.846;2023-03-01T01:09:40;22.15;;;19.88;;
15952;SDS011;8075;47.766;8.846;2023-03-01T01:12:06;20.50;;;18.30;;
15952;SDS011;8075;47.766;8.846;2023-03-01T01:14:33;20.67;;;18.67;;
15952;SDS011;8075;47.766;8.846;2023-03-01T01:16:59;21.83;;;19.60;;
15952;SDS011;8075;47.766;8.846;2023-03-01T01:19:25;22.17;;;19.75;;
15952;SDS011;8075;47.766;8.846;2023-03-01T01:21:52;23.80;;;20.17;;
15952;SDS011;8075;47.766;8.846;2023-03-01T01:24:18;23.20;;;20.77;;
15952;SDS011;8075;47.766;8.846;2023-03-01T01:26:44;23.30;;;20.75;;
15952;SDS011;8075;47.766;8.846;2023-03-01T01:29:11;24.08;;;21.50;;
15952;SDS011;8075;47.766;8.846;2023-03-01T01:31:37;23.80;;;21.33;;
15952;SDS011;8075;47.766;8.846;2023-03-01T01:34:04;23.60;;;21.10;;
15952;SDS011;8075;47.766;8.846;2023-03-01T01:36:31;23.13;;;20.58;;
15952;SDS011;8075;47.766;8.846;2023-03-01T01:38:57;24.42;;;21.83;;
15952;SDS011;8075;47.766;8.846;2023-03-01T01:41:24;23.35;;;20.95;;
15952;SDS011;8075;47.766;8.846;2023-03-01T01:44:10;22.70;;;20.33;;
15952;SDS011;8075;47.766;8.846;2023-03-01T01:49:26;24.65;;;22.05;;
15952;SDS011;8075;47.766;8.846;2023-03-01T01:54:30;24.70;;;22.10;;
15952;SDS011;8075;47.766;8.846;2023-03-01T01:56:58;27.20;;;22.13;;
15952;SDS011;8075;47.766;8.846;2023-03-01T01:59:26;25.45;;;22.45;;
15952;SDS011;8075;47.766;8.846;2023-03-01T02:01:54;25.88;;;22.00;;
15952;SDS011;8075;47.766;8.846;2023-03-01T02:04:20;24.45;;;21.83;;
15952;SDS011;8075;47.766;8.846;2023-03-01T02:06:48;24.67;;;22.00;;
15952;SDS011;8075;47.766;8.846;2023-03-01T02:09:16;26.30;;;22.30;;
15952;SDS011;8075;47.766;8.846;2023-03-01T02:11:44;26.83;;;22.52;;
15952;SDS011;8075;47.766;8.846;2023-03-01T02:14:10;24.63;;;22.02;;
15952;SDS011;8075;47.766;8.846;2023-03-01T02:16:36;24.13;;;21.53;;
15952;SDS011;8075;47.766;8.846;2023-03-01T02:19:02;25.67;;;22.98;;
15952;SDS011;8075;47.766;8.846;2023-03-01T02:23:56;24.63;;;22.05;;
15952;SDS011;8075;47.766;8.846;2023-03-01T02:29:06;26.27;;;22.98;;
15952;SDS011;8075;47.766;8.846;2023-03-01T02:31:32;25.50;;;22.52;;
15952;SDS011;8075;47.766;8.846;2023-03-01T02:34:09;26.50;;;22.80;;
15952;SDS011;8075;47.766;8.846;2023-03-01T02:36:37;24.35;;;21.55;;
15952;SDS011;8075;47.766;8.846;2023-03-01T02:39:05;24.92;;;22.23;;
15952;SDS011;8075;47.766;8.846;2023-03-01T02:41:39;26.88;;;23.02;;
15952;SDS011;8075;47.766;8.846;2023-03-01T02:44:06;27.50;;;23.15;;
15952;SDS011;8075;47.766;8.846;2023-03-01T02:46:33;25.67;;;22.95;;
15952;SDS011;8075;47.766;8.846;2023-03-01T02:48:59;25.93;;;22.17;;
15952;SDS011;8075;47.766;8.846;2023-03-01T02:56:20;26.05;;;23.23;;
15952;SDS011;8075;47.766;8.846;2023-03-01T02:58:46;27.05;;;23.65;;
15952;SDS011;8075;47.766;8.846;2023-03-01T03:01:16;27.85;;;23.95;;
15952;SDS011;8075;47.766;8.846;2023-03-01T03:03:42;27.25;;;23.60;;
15952;SDS011;8075;47.766;8.846;2023-03-01T03:06:08;27.77;;;23.80;;
15952;SDS011;8075;47.766;8.846;2023-03-01T03:08:34;27.13;;;23.73;;
15952;SDS011;8075;47.766;8.846;2023-03-01T03:11:00;27.75;;;23.42;;
15952;SDS011;8075;47.766;8.846;2023-03-01T03:13:26;27.45;;;23.48;;
15952;SDS011;8075;47.766;8.846;2023-03-01T03:15:54;27.80;;;24.05;;
15952;SDS011;8075;47.766;8.846;2023-03-01T03:18:21;26.83;;;23.93;;
15952;SDS011;8075;47.766;8.846;2023-03-01T03:20:47;27.03;;;23.43;;
15952;SDS011;8075;47.766;8.846;2023-03-01T03:23:17;26.70;;;23.10;;
15952;SDS011;8075;47.766;8.846;2023-03-01T03:25:44;29.80;;;23.90;;
15952;SDS011;8075;47.766;8.846;2023-03-01T03:28:10;26.25;;;22.80;;
15952;SDS011;8075;47.766;8.846;2023-03-01T03:30:36;29.83;;;23.73;;
15952;SDS011;8075;47.766;8.846;2023-03-01T03:33:04;26.07;;;23.20;;
15952;SDS011;8075;47.766;8.846;2023-03-01T03:35:31;26.70;;;22.80;;
15952;SDS011;8075;47.766;8.846;2023-03-01T03:38:07;27.92;;;23.30;;
15952;SDS011;8075;47.766;8.846;2023-03-01T03:40:41;25.67;;;22.30;;
15952;SDS011;8075;47.766;8.846;2023-03-01T03:43:08;25.52;;;22.15;;
15952;SDS011;8075;47.766;8.846;2023-03-01T03:45:34;28.80;;;23.00;;
15952;SDS011;8075;47.766;8.846;2023-03-01T03:48:01;26.57;;;22.93;;
15952;SDS011;8075;47.766;8.846;2023-03-01T03:50:27;27.58;;;23.17;;
15952;SDS011;8075;47.766;8.846;2023-03-01T03:52:53;30.33;;;24.15;;
15952;SDS011;8075;47.766;8.846;2023-03-01T03:55:19;28.73;;;23.60;;
15952;SDS011;8075;47.766;8.846;2023-03-01T03:57:48;28.17;;;23.55;;
15952;SDS011;8075;47.766;8.846;2023-03-01T04:00:19;29.52;;;24.23;;
15952;SDS011;8075;47.766;8.846;2023-03-01T04:02:46;27.80;;;23.20;;
15952;SDS011;8075;47.766;8.846;2023-03-01T04:05:13;29.00;;;24.00;;
15952;SDS011;8075;47.766;8.846;2023-03-01T04:07:39;28.73;;;23.70;;
15952;SDS011;8075;47.766;8.846;2023-03-01T04:10:06;27.83;;;23.63;;
15952;SDS011;8075;47.766;8.846;2023-03-01T04:12:33;27.83;;;23.40;;
15952;SDS011;8075;47.766;8.846;2023-03-01T04:15:00;26.40;;;23.27;;
15952;SDS011;8075;47.766;8.846;2023-03-01T04:17:26;27.88;;;23.33;;
15952;SDS011;8075;47.766;8.846;2023-03-01T04:19:52;26.70;;;23.10;;
15952;SDS011;8075;47.766;8.846;2023-03-01T04:22:18;27.80;;;23.70;;
15952;SDS011;8075;47.766;8.846;2023-03-01T04:24:44;28.13;;;23.40;;
15952;SDS011;8075;47.766;8.846;2023-03-01T04:27:10;28.20;;;23.60;;
15952;SDS011;8075;47.766;8.846;2023-03-01T04:29:37;27.85;;;23.73;;
15952;SDS011;8075;47.766;8.846;2023-03-01T04:32:03;28.67;;;23.55;;
15952;SDS011;8075;47.766;8.846;2023-03-01T04:34:31;29.65;;;24.10;;
15952;SDS011;8075;47.766;8.846;2023-03-01T04:36:57;28.92;;;23.83;;
15952;SDS011;8075;47.766;8.846;2023-03-01T04:39:23;30.60;;;23.90;;
15952;SDS011;8075;47.766;8.846;2023-03-01T04:41:49;27.23;;;23.13;;
15952;SDS011;8075;47.766;8.846;2023-03-01T04:44:15;27.05;;;23.27;;
15952;SDS011;8075;47.766;8.846;2023-03-01T04:46:41;28.83;;;23.97;;
15952;SDS011;8075;47.766;8.846;2023-03-01T04:49:07;29.67;;;23.65;;
15952;SDS011;8075;47.766;8.846;2023-03-01T04:51:33;29.52;;;23.30;;
15952;SDS011;8075;47.766;8.846;2023-03-01T04:53:59;30.17;;;24.15;;
15952;SDS011;8075;47.766;8.846;2023-03-01T04:56:25;29.15;;;23.73;;
15952;SDS011;8075;47.766;8.846;2023-03-01T04:58:53;29.00;;;24.05;;
15952;SDS011;8075;47.766;8.846;2023-03-01T05:01:20;28.30;;;23.92;;
15952;SDS011;8075;47.766;8.846;2023-03-01T05:03:47;28.20;;;23.27;;
15952;SDS011;8075;47.766;8.846;2023-03-01T05:06:13;29.23;;;24.23;;
15952;SDS011;8075;47.766;8.846;2023-03-01T05:08:39;28.58;;;24.23;;
15952;SDS011;8075;47.766;8.846;2023-03-01T05:11:06;28.73;;;24.30;;
15952;SDS011;8075;47.766;8.846;2023-03-01T05:13:34;28.08;;;23.25;;
15952;SDS011;8075;47.766;8.846;2023-03-01T05:16:00;27.55;;;23.90;;
15952;SDS011;8075;47.766;8.846;2023-03-01T05:18:28;28.50;;;23.65;;
15952;SDS011;8075;47.766;8.846;2023-03-01T05:20:55;30.42;;;23.95;;
15952;SDS011;8075;47.766;8.846;2023-03-01T05:23:23;31.17;;;24.13;;
15952;SDS011;8075;47.766;8.846;2023-03-01T05:25:49;29.43;;;23.83;;
15952;SDS011;8075;47.766;8.846;2023-03-01T05:28:17;30.52;;;24.38;;
15952;SDS011;8075;47.766;8.846;2023-03-01T05:30:44;33.58;;;25.58;;
15952;SDS011;8075;47.766;8.846;2023-03-01T05:33:10;36.17;;;27.65;;
15952;SDS011;8075;47.766;8.846;2023-03-01T05:35:38;58.05;;;34.85;;
15952;SDS011;8075;47.766;8.846;2023-03-01T05:38:05;31.88;;;25.55;;
15952;SDS011;8075;47.766;8.846;2023-03-01T05:40:32;47.13;;;32.42;;
15952;SDS011;8075;47.766;8.846;2023-03-01T05:42:58;113.22;;;56.15;;
15952;SDS011;8075;47.766;8.846;2023-03-01T05:45:25;34.08;;;27.00;;
15952;SDS011;8075;47.766;8.846;2023-03-01T05:47:51;32.83;;;25.50;;
15952;SDS011;8075;47.766;8.846;2023-03-01T05:53:12;36.00;;;28.83;;
15952;SDS011;8075;47.766;8.846;2023-03-01T05:55:39;34.23;;;27.10;;
15952;SDS011;8075;47.766;8.846;2023-03-01T05:58:07;32.25;;;26.98;;
15952;SDS011;8075;47.766;8.846;2023-03-01T06:00:33;30.02;;;25.33;;
15952;SDS011;8075;47.766;8.846;2023-03-01T06:03:00;32.15;;;25.30;;
15952;SDS011;8075;47.766;8.846;2023-03-01T06:05:26;31.75;;;25.23;;
15952;SDS011;8075;47.766;8.846;2023-03-01T06:07:52;33.40;;;26.73;;
15952;SDS011;8075;47.766;8.846;2023-03-01T06:10:19;34.28;;;24.88;;
15952;SDS011;8075;47.766;8.846;2023-03-01T06:12:46;32.30;;;25.50;;
15952;SDS011;8075;47.766;8.846;2023-03-01T06:15:12;32.28;;;24.75;;
15952;SDS011;8075;47.766;8.846;2023-03-01T06:17:39;31.48;;;25.10;;
15952;SDS011;8075;47.766;8.846;2023-03-01T06:20:07;33.27;;;24.87;;
15952;SDS011;8075;47.766;8.846;2023-03-01T06:22:34;32.22;;;25.77;;
15952;SDS011;8075;47.766;8.846;2023-03-01T06:25:00;30.23;;;24.63;;
15952;SDS011;8075;47.766;8.846;2023-03-01T06:27:26;33.95;;;25.58;;
15952;SDS011;8075;47.766;8.846;2023-03-01T06:29:52;31.42;;;25.13;;
15952;SDS011;8075;47.766;8.846;2023-03-01T06:32:18;31.25;;;24.95;;
15952;SDS011;8075;47.766;8.846;2023-03-01T06:34:44;31.80;;;25.40;;
15952;SDS011;8075;47.766;8.846;2023-03-01T06:37:10;32.13;;;25.02;;
15952;SDS011;8075;47.766;8.846;2023-03-01T06:39:36;32.65;;;25.42;;
15952;SDS011;8075;47.766;8.846;2023-03-01T06:42:02;31.50;;;25.20;;
15952;SDS011;8075;47.766;8.846;2023-03-01T06:44:28;30.25;;;23.67;;
15952;SDS011;8075;47.766;8.846;2023-03-01T06:46:54;31.60;;;25.67;;
15952;SDS011;8075;47.766;8.846;2023-03-01T06:49:20;33.47;;;25.20;;
15952;SDS011;8075;47.766;8.846;2023-03-01T06:51:46;30.10;;;24.45;;
15952;SDS011;8075;47.766;8.846;2023-03-01T06:54:12;32.33;;;25.75;;
15952;SDS011;8075;47.766;8.846;2023-03-01T06:56:38;28.65;;;24.17;;
15952;SDS011;8075;47.766;8.846;2023-03-01T06:59:04;30.60;;;25.30;;
15952;SDS011;8075;47.766;8.846;2023-03-01T07:01:31;31.40;;;24.80;;
15952;SDS011;8075;47.766;8.846;2023-03-01T07:03:57;31.85;;;25.45;;
15952;SDS011;8075;47.766;8.846;2023-03-01T07:06:23;31.17;;;25.35;;
15952;SDS011;8075;47.766;8.846;2023-03-01T07:08:49;31.73;;;25.42;;
15952;SDS011;8075;47.766;8.846;2023-03-01T07:11:15;30.05;;;24.42;;
15952;SDS011;8075;47.766;8.846;2023-03-01T07:13:41;30.20;;;25.42;;
15952;SDS011;8075;47.766;8.846;2023-03-01T07:16:07;31.13;;;24.33;;
15952;SDS011;8075;47.766;8.846;2023-03-01T07:18:33;32.22;;;25.38;;
15952;SDS011;8075;47.766;8.846;2023-03-01T07:21:09;33.13;;;25.73;;
15952;SDS011;8075;47.766;8.846;2023-03-01T07:23:36;30.00;;;24.45;;
15952;SDS011;8075;47.766;8.846;2023-03-01T07:26:02;28.50;;;24.67;;
15952;SDS011;8075;47.766;8.846;2023-03-01T07:28:28;32.83;;;25.77;;
15952;SDS011;8075;47.766;8.846;2023-03-01T07:30:58;30.33;;;24.05;;
15952;SDS011;8075;47.766;8.846;2023-03-01T07:33:25;27.65;;;24.40;;
15952;SDS011;8075;47.766;8.846;2023-03-01T07:35:55;30.70;;;24.08;;
15952;SDS011;8075;47.766;8.846;2023-03-01T07:38:21;29.83;;;23.70;;
15952;SDS011;8075;47.766;8.846;2023-03-01T07:40:47;29.40;;;24.73;;
15952;SDS011;8075;47.766;8.846;2023-03-01T07:43:13;31.02;;;24.35;;
15952;SDS011;8075;47.766;8.846;2023-03-01T07:45:39;32.90;;;25.40;;
15952;SDS011;8075;47.766;8.846;2023-03-01T07:48:05;28.38;;;23.58;;
15952;SDS011;8075;47.766;8.846;2023-03-01T07:50:31;98.05;;;44.97;;
15952;SDS011;8075;47.766;8.846;2023-03-01T07:52:57;48.23;;;29.53;;
15952;SDS011;8075;47.766;8.846;2023-03-01T07:55:23;46.22;;;29.70;;
15952;SDS011;8075;47.766;8.846;2023-03-01T07:57:49;32.58;;;24.67;;
15952;SDS011;8075;47.766;8.846;2023-03-01T08:00:15;39.40;;;26.67;;
15952;SDS011;8075;47.766;8.846;2023-03-01T08:02:41;54.63;;;39.55;;
15952;SDS011;8075;47.766;8.846;2023-03-01T08:05:08;33.28;;;27.98;;
15952;SDS011;8075;47.766;8.846;2023-03-01T08:07:35;33.37;;;28.03;;
15952;SDS011;8075;47.766;8.846;2023-03-01T08:10:01;29.20;;;25.15;;
15952;SDS011;8075;47.766;8.846;2023-03-01T08:12:27;27.52;;;23.33;;
15952;SDS011;8075;47.766;8.846;2023-03-01T08:14:53;27.75;;;23.45;;
15952;SDS011;8075;47.766;8.846;2023-03-01T08:17:19;28.40;;;23.98;;
15952;SDS011;8075;47.766;8.846;2023-03-01T08:19:45;31.57;;;24.07;;
15952;SDS011;8075;47.766;8.846;2023-03-01T08:22:11;28.42;;;23.58;;
15952;SDS011;8075;47.766;8.846;2023-03-01T08:24:37;31.77;;;24.08;;
15952;SDS011;8075;47.766;8.846;2023-03-01T08:27:03;28.20;;;23.63;;
15952;SDS011;8075;47.766;8.846;2023-03-01T08:29:33;27.80;;;23.45;;
15952;SDS011;8075;47.766;8.846;2023-03-01T08:31:59;26.35;;;22.38;;
15952;SDS011;8075;47.766;8.846;2023-03-01T08:34:25;27.95;;;23.33;;
15952;SDS011;8075;47.766;8.846;2023-03-01T08:36:51;27.98;;;23.50;;
15952;SDS011;8075;47.766;8.846;2023-03-01T08:39:18;28.98;;;23.77;;
15952;SDS011;8075;47.766;8.846;2023-03-01T08:41:45;31.63;;;23.63;;
15952;SDS011;8075;47.766;8.846;2023-03-01T08:44:11;27.15;;;22.85;;
15952;SDS011;8075;47.766;8.846;2023-03-01T08:46:38;26.40;;;22.90;;
15952;SDS011;8075;47.766;8.846;2023-03-01T08:49:15;25.58;;;22.65;;
15952;SDS011;8075;47.766;8.846;2023-03-01T08:51:42;25.98;;;22.15;;
15952;SDS011;8075;47.766;8.846;2023-03-01T08:54:12;28.27;;;24.10;;
15952;SDS011;8075;47.766;8.846;2023-03-01T08:56:39;27.63;;;24.00;;
15952;SDS011;8075;47.766;8.846;2023-03-01T08:59:05;26.90;;;22.38;;
15952;SDS011;8075;47.766;8.846;2023-03-01T09:01:31;25.42;;;21.92;;
15952;SDS011;8075;47.766;8.846;2023-03-01T09:03:58;25.65;;;22.88;;
15952;SDS011;8075;47.766;8.846;2023-03-01T09:06:24;30.13;;;24.45;;
15952;SDS011;8075;47.766;8.846;2023-03-01T09:08:50;28.98;;;23.30;;
15952;SDS011;8075;47.766;8.846;2023-03-01T09:11:17;27.10;;;23.02;;
15952;SDS011;8075;47.766;8.846;2023-03-01T09:13:44;30.08;;;24.13;;
15952;SDS011;8075;47.766;8.846;2023-03-01T09:16:11;29.53;;;23.43;;
15952;SDS011;8075;47.766;8.846;2023-03-01T09:18:37;26.77;;;23.87;;
15952;SDS011;8075;47.766;8.846;2023-03-01T09:21:11;30.50;;;24.65;;
15952;SDS011;8075;47.766;8.846;2023-03-01T09:23:39;29.92;;;24.77;;
15952;SDS011;8075;47.766;8.846;2023-03-01T09:26:05;29.23;;;24.90;;
15952;SDS011;8075;47.766;8.846;2023-03-01T09:28:31;28.35;;;24.83;;
15952;SDS011;8075;47.766;8.846;2023-03-01T09:30:58;28.55;;;23.85;;
15952;SDS011;8075;47.766;8.846;2023-03-01T09:33:24;29.38;;;24.08;;
15952;SDS011;8075;47.766;8.846;2023-03-01T09:35:55;29.20;;;24.37;;
15952;SDS011;8075;47.766;8.846;2023-03-01T09:38:21;29.75;;;24.90;;
15952;SDS011;8075;47.766;8.846;2023-03-01T09:40:47;30.95;;;25.23;;
15952;SDS011;8075;47.766;8.846;2023-03-01T09:46:02;30.30;;;25.65;;
15952;SDS011;8075;47.766;8.846;2023-03-01T09:48:31;29.42;;;24.30;;
15952;SDS011;8075;47.766;8.846;2023-03-01T09:50:58;32.35;;;25.33;;
15952;SDS011;8075;47.766;8.846;2023-03-01T09:53:32;31.70;;;25.30;;
15952;SDS011;8075;47.766;8.846;2023-03-01T09:56:02;30.23;;;25.02;;
15952;SDS011;8075;47.766;8.846;2023-03-01T10:04:10;32.72;;;26.35;;
15952;SDS011;8075;47.766;8.846;2023-03-01T10:06:38;31.67;;;25.65;;
15952;SDS011;8075;47.766;8.846;2023-03-01T10:09:05;30.60;;;25.95;;
15952;SDS011;8075;47.766;8.846;2023-03-01T10:11:37;34.22;;;27.52;;
15952;SDS011;8075;47.766;8.846;2023-03-01T10:14:05;36.20;;;29.02;;
15952;SDS011;8075;47.766;8.846;2023-03-01T10:16:55;30.48;;;25.73;;
15952;SDS011;8075;47.766;8.846;2023-03-01T10:21:54;35.67;;;29.83;;
15952;SDS011;8075;47.766;8.846;2023-03-01T10:24:23;29.50;;;25.00;;
15952;SDS011;8075;47.766;8.846;2023-03-01T10:26:56;31.20;;;24.30;;
15952;SDS011;8075;47.766;8.846;2023-03-01T10:29:25;48.92;;;36.80;;
15952;SDS011;8075;47.766;8.846;2023-03-01T10:31:52;33.23;;;26.43;;
15952;SDS011;8075;47.766;8.846;2023-03-01T10:34:21;30.92;;;25.83;;
15952;SDS011;8075;47.766;8.846;2023-03-01T10:36:48;44.83;;;33.17;;
15952;SDS011;8075;47.766;8.846;2023-03-01T10:39:16;58.63;;;39.83;;
15952;SDS011;8075;47.766;8.846;2023-03-01T10:41:51;52.95;;;36.28;;
15952;SDS011;8075;47.766;8.846;2023-03-01T10:44:34;34.65;;;27.58;;
15952;SDS011;8075;47.766;8.846;2023-03-01T10:47:01;32.97;;;26.13;;
15952;SDS011;8075;47.766;8.846;2023-03-01T10:49:27;34.20;;;27.65;;
15952;SDS011;8075;47.766;8.846;2023-03-01T10:51:53;37.53;;;29.00;;
15952;SDS011;8075;47.766;8.846;2023-03-01T10:54:21;29.23;;;24.33;;
15952;SDS011;8075;47.766;8.846;2023-03-01T10:56:54;29.70;;;24.63;;
15952;SDS011;8075;47.766;8.846;2023-03-01T11:04:37;31.30;;;24.20;;
15952;SDS011;8075;47.766;8.846;2023-03-01T11:07:03;28.23;;;23.40;;
15952;SDS011;8075;47.766;8.846;2023-03-01T11:09:33;29.63;;;23.70;;
15952;SDS011;8075;47.766;8.846;2023-03-01T11:12:11;28.45;;;24.00;;
15952;SDS011;8075;47.766;8.846;2023-03-01T11:14:39;28.75;;;23.98;;
15952;SDS011;8075;47.766;8.846;2023-03-01T11:17:21;28.50;;;23.50;;
15952;SDS011;8075;47.766;8.846;2023-03-01T11:22:50;25.47;;;22.70;;
15952;SDS011;8075;47.766;8.846;2023-03-01T11:25:17;27.80;;;23.48;;
15952;SDS011;8075;47.766;8.846;2023-03-01T11:27:45;28.10;;;23.55;;
15952;SDS011;8075;47.766;8.846;2023-03-01T11:30:18;26.48;;;22.80;;
15952;SDS011;8075;47.766;8.846;2023-03-01T11:32:57;27.77;;;23.58;;
15952;SDS011;8075;47.766;8.846;2023-03-01T11:35:27;29.27;;;24.30;;
15952;SDS011;8075;47.766;8.846;2023-03-01T11:40:27;29.95;;;25.20;;
15952;SDS011;8075;47.766;8.846;2023-03-01T11:50:50;30.08;;;24.67;;
15952;SDS011;8075;47.766;8.846;2023-03-01T12:06:42;31.58;;;25.02;;
15952;SDS011;8075;47.766;8.846;2023-03-01T12:11:59;27.58;;;23.90;;
15952;SDS011;8075;47.766;8.846;2023-03-01T12:22:17;29.38;;;25.08;;
15952;SDS011;8075;47.766;8.846;2023-03-01T12:29:50;26.75;;;23.67;;
15952;SDS011;8075;47.766;8.846;2023-03-01T12:32:22;28.10;;;24.00;;
15952;SDS011;8075;47.766;8.846;2023-03-01T12:42:58;28.50;;;24.35;;
15952;SDS011;8075;47.766;8.846;2023-03-01T12:48:07;29.10;;;23.33;;
15952;SDS011;8075;47.766;8.846;2023-03-01T12:50:38;30.70;;;24.33;;
15952;SDS011;8075;47.766;8.846;2023-03-01T12:53:07;26.37;;;23.53;;
15952;SDS011;8075;47.766;8.846;2023-03-01T12:55:39;28.23;;;23.55;;
15952;SDS011;8075;47.766;8.846;2023-03-01T13:03:42;27.77;;;23.80;;
15952;SDS011;8075;47.766;8.846;2023-03-01T13:06:08;28.08;;;23.13;;
15952;SDS011;8075;47.766;8.846;2023-03-01T13:11:03;27.17;;;22.65;;
15952;SDS011;8075;47.766;8.846;2023-03-01T13:13:30;30.10;;;23.90;;
15952;SDS011;8075;47.766;8.846;2023-03-01T13:15:56;26.95;;;23.38;;
15952;SDS011;8075;47.766;8.846;2023-03-01T13:20:50;29.08;;;23.52;;
15952;SDS011;8075;47.766;8.846;2023-03-01T13:36:07;28.23;;;23.13;;
15952;SDS011;8075;47.766;8.846;2023-03-01T13:41:09;27.05;;;22.48;;
15952;SDS011;8075;47.766;8.846;2023-03-01T13:43:36;24.52;;;21.75;;
15952;SDS011;8075;47.766;8.846;2023-03-01T13:48:58;26.77;;;22.20;;
15952;SDS011;8075;47.766;8.846;2023-03-01T13:51:25;25.00;;;22.10;;
15952;SDS011;8075;47.766;8.846;2023-03-01T13:53:51;26.00;;;22.25;;
15952;SDS011;8075;47.766;8.846;2023-03-01T13:56:24;25.20;;;21.67;;
15952;SDS011;8075;47.766;8.846;2023-03-01T14:01:21;25.67;;;22.15;;
15952;SDS011;8075;47.766;8.846;2023-03-01T14:03:47;25.75;;;21.90;;
15952;SDS011;8075;47.766;8.846;2023-03-01T14:06:14;25.67;;;21.48;;
15952;SDS011;8075;47.766;8.846;2023-03-01T14:08:42;24.95;;;21.77;;
15952;SDS011;8075;47.766;8.846;2023-03-01T14:17:12;25.70;;;21.90;;
15952;SDS011;8075;47.766;8.846;2023-03-01T14:19:30;23.52;;;20.60;;
15952;SDS011;8075;47.766;8.846;2023-03-01T14:24:39;25.30;;;21.30;;
15952;SDS011;8075;47.766;8.846;2023-03-01T14:27:11;27.73;;;21.75;;
15952;SDS011;8075;47.766;8.846;2023-03-01T14:29:38;24.48;;;21.15;;
15952;SDS011;8075;47.766;8.846;2023-03-01T14:32:11;26.80;;;21.67;;
15952;SDS011;8075;47.766;8.846;2023-03-01T14:34:42;24.90;;;21.58;;
15952;SDS011;8075;47.766;8.846;2023-03-01T14:37:16;25.63;;;22.38;;
15952;SDS011;8075;47.766;8.846;2023-03-01T14:39:44;24.45;;;21.83;;
15952;SDS011;8075;47.766;8.846;2023-03-01T14:42:10;25.48;;;21.77;;
15952;SDS011;8075;47.766;8.846;2023-03-01T14:44:37;24.73;;;21.90;;
15952;SDS011;8075;47.766;8.846;2023-03-01T14:47:03;25.85;;;22.30;;
15952;SDS011;8075;47.766;8.846;2023-03-01T14:49:30;26.73;;;22.50;;
15952;SDS011;8075;47.766;8.846;2023-03-01T14:51:58;25.90;;;23.10;;
15952;SDS011;8075;47.766;8.846;2023-03-01T14:54:42;26.33;;;22.33;;
15952;SDS011;8075;47.766;8.846;2023-03-01T14:57:19;25.60;;;22.10;;
15952;SDS011;8075;47.766;8.846;2023-03-01T14:59:46;29.30;;;23.48;;
15952;SDS011;8075;47.766;8.846;2023-03-01T15:02:13;27.27;;;22.70;;
15952;SDS011;8075;47.766;8.846;2023-03-01T15:04:42;28.90;;;22.63;;
15952;SDS011;8075;47.766;8.846;2023-03-01T15:07:09;26.13;;;22.45;;
15952;SDS011;8075;47.766;8.846;2023-03-01T15:09:35;27.42;;;22.48;;
15952;SDS011;8075;47.766;8.846;2023-03-01T15:12:23;27.15;;;22.83;;
15952;SDS011;8075;47.766;8.846;2023-03-01T15:14:48;25.90;;;21.98;;
15952;SDS011;8075;47.766;8.846;2023-03-01T15:17:26;27.75;;;22.50;;
15952;SDS011;8075;47.766;8.846;2023-03-01T15:19:55;25.33;;;22.08;;
15952;SDS011;8075;47.766;8.846;2023-03-01T15:22:21;27.48;;;23.55;;
15952;SDS011;8075;47.766;8.846;2023-03-01T15:24:48;28.17;;;22.50;;
15952;SDS011;8075;47.766;8.846;2023-03-01T15:27:16;28.15;;;22.75;;
15952;SDS011;8075;47.766;8.846;2023-03-01T15:29:47;26.67;;;22.60;;
15952;SDS011;8075;47.766;8.846;2023-03-01T15:32:25;25.33;;;22.13;;
15952;SDS011;8075;47.766;8.846;2023-03-01T15:34:51;25.23;;;22.25;;
15952;SDS011;8075;47.766;8.846;2023-03-01T15:40:02;25.20;;;21.98;;
15952;SDS011;8075;47.766;8.846;2023-03-01T15:45:11;25.13;;;22.25;;
15952;SDS011;8075;47.766;8.846;2023-03-01T15:47:46;24.38;;;21.73;;
15952;SDS011;8075;47.766;8.846;2023-03-01T15:50:26;25.48;;;22.30;;
15952;SDS011;8075;47.766;8.846;2023-03-01T15:52:53;26.13;;;22.27;;
15952;SDS011;8075;47.766;8.846;2023-03-01T15:55:30;27.17;;;22.75;;
15952;SDS011;8075;47.766;8.846;2023-03-01T15:58:12;26.52;;;22.25;;
15952;SDS011;8075;47.766;8.846;2023-03-01T16:00:38;28.65;;;22.58;;
15952;SDS011;8075;47.766;8.846;2023-03-01T16:03:05;27.63;;;21.90;;
15952;SDS011;8075;47.766;8.846;2023-03-01T16:05:33;27.40;;;23.38;;
15952;SDS011;8075;47.766;8.846;2023-03-01T16:07:59;26.02;;;21.98;;
15952;SDS011;8075;47.766;8.846;2023-03-01T16:10:26;24.67;;;21.60;;
15952;SDS011;8075;47.766;8.846;2023-03-01T16:12:52;26.98;;;22.23;;
15952;SDS011;8075;47.766;8.846;2023-03-01T16:15:28;24.27;;;21.63;;
15952;SDS011;8075;47.766;8.846;2023-03-01T16:17:54;26.10;;;21.35;;
15952;SDS011;8075;47.766;8.846;2023-03-01T16:20:21;25.83;;;22.70;;
15952;SDS011;8075;47.766;8.846;2023-03-01T16:22:47;27.13;;;22.35;;
15952;SDS011;8075;47.766;8.846;2023-03-01T16:25:15;26.03;;;21.53;;
15952;SDS011;8075;47.766;8.846;2023-03-01T16:27:42;28.40;;;23.65;;
15952;SDS011;8075;47.766;8.846;2023-03-01T16:30:08;26.20;;;22.38;;
15952;SDS011;8075;47.766;8.846;2023-03-01T16:32:38;26.38;;;22.10;;
15952;SDS011;8075;47.766;8.846;2023-03-01T16:35:05;24.95;;;21.20;;
15952;SDS011;8075;47.766;8.846;2023-03-01T16:37:32;27.63;;;22.25;;
15952;SDS011;8075;47.766;8.846;2023-03-01T16:39:58;25.83;;;22.20;;
15952;SDS011;8075;47.766;8.846;2023-03-01T16:42:24;28.10;;;22.53;;
15952;SDS011;8075;47.766;8.846;2023-03-01T16:44:57;25.98;;;22.92;;
15952;SDS011;8075;47.766;8.846;2023-03-01T16:47:23;27.08;;;22.83;;
15952;SDS011;8075;47.766;8.846;2023-03-01T16:49:52;26.95;;;22.88;;
15952;SDS011;8075;47.766;8.846;2023-03-01T16:52:18;26.35;;;23.55;;